createdAt,value
2022-10-26T00:01:14.156Z,3.90
2022-10-26T00:03:42.195Z,4.50
2022-10-26T00:06:19.423Z,3.53
2022-10-26T00:08:46.754Z,4.00
2022-10-26T00:11:14.086Z,3.70
2022-10-26T00:13:41.620Z,3.80
2022-10-26T00:16:26.524Z,4.20
2022-10-26T00:18:53.456Z,3.80
2022-10-26T00:21:20.263Z,3.83
2022-10-26T00:23:47.027Z,3.13
2022-10-26T00:26:14.120Z,3.67
2022-10-26T00:28:41.353Z,3.77
2022-10-26T00:31:13.736Z,4.37
2022-10-26T00:33:40.644Z,4.10
2022-10-26T00:36:09.418Z,4.33
2022-10-26T00:38:36.649Z,3.73
2022-10-26T00:41:03.424Z,3.70
2022-10-26T00:43:30.105Z,3.93
2022-10-26T00:45:58.861Z,3.90
2022-10-26T00:48:30.881Z,3.70
2022-10-26T00:51:00.906Z,3.70
2022-10-26T00:53:28.944Z,3.70
2022-10-26T00:55:57.110Z,3.20
2022-10-26T00:58:26.152Z,4.00
2022-10-26T01:00:53.232Z,3.70
2022-10-26T01:03:20.996Z,3.73
2022-10-26T01:05:49.488Z,3.13
2022-10-26T01:08:17.116Z,4.90
2022-10-26T01:10:44.173Z,3.60
2022-10-26T01:13:12.621Z,3.80
2022-10-26T01:16:03.707Z,3.60
2022-10-26T01:18:36.521Z,4.13
2022-10-26T01:21:18.144Z,3.90
2022-10-26T01:24:09.698Z,4.50
2022-10-26T01:26:59.573Z,3.33
2022-10-26T01:29:49.764Z,3.50
2022-10-26T01:32:26.585Z,3.00
2022-10-26T01:35:06.546Z,3.70
2022-10-26T01:37:39.240Z,3.00
2022-10-26T01:40:09.173Z,3.20
2022-10-26T01:42:38.419Z,3.63
2022-10-26T01:45:08.259Z,3.57
2022-10-26T01:47:37.855Z,3.50
2022-10-26T01:50:06.261Z,3.03
2022-10-26T01:52:33.468Z,3.77
2022-10-26T01:55:24.460Z,3.00
2022-10-26T01:57:52.686Z,4.00
2022-10-26T02:00:19.602Z,3.20
2022-10-26T02:02:49.111Z,3.77
2022-10-26T02:05:35.814Z,4.03
2022-10-26T02:08:17.809Z,3.23
2022-10-26T02:10:50.225Z,3.50
2022-10-26T02:13:46.957Z,3.67
2022-10-26T02:16:13.635Z,3.77
2022-10-26T02:19:03.131Z,3.40
2022-10-26T02:21:39.585Z,4.47
2022-10-26T02:24:10.480Z,3.20
2022-10-26T02:26:40.733Z,3.30
2022-10-26T02:29:11.863Z,3.93
2022-10-26T02:31:41.270Z,3.50
2022-10-26T02:34:13.331Z,3.20
2022-10-26T02:36:45.306Z,3.50
2022-10-26T02:39:14.924Z,3.90
2022-10-26T02:41:44.158Z,4.73
2022-10-26T02:44:18.635Z,3.70
2022-10-26T02:46:45.621Z,3.43
2022-10-26T02:49:12.394Z,4.33
2022-10-26T02:54:35.052Z,3.13
2022-10-26T02:57:12.956Z,4.50
2022-10-26T02:59:43.698Z,3.17
2022-10-26T03:02:11.941Z,4.03
2022-10-26T03:04:38.742Z,3.10
2022-10-26T03:07:05.584Z,3.90
2022-10-26T03:09:32.402Z,3.17
2022-10-26T03:11:59.264Z,3.10
2022-10-26T03:14:26.045Z,3.40
2022-10-26T03:16:52.851Z,3.73
2022-10-26T03:19:19.735Z,4.73
2022-10-26T03:21:46.479Z,3.27
2022-10-26T03:24:13.252Z,4.10
2022-10-26T03:26:40.001Z,3.63
2022-10-26T03:29:06.824Z,4.00
2022-10-26T03:31:33.507Z,3.30
2022-10-26T03:34:00.371Z,3.53
2022-10-26T03:36:27.135Z,3.27
2022-10-26T03:38:53.875Z,4.00
2022-10-26T03:41:20.631Z,4.33
2022-10-26T03:43:48.415Z,3.77
2022-10-26T03:46:15.259Z,3.50
2022-10-26T03:48:42.039Z,3.60
2022-10-26T03:51:08.871Z,4.17
2022-10-26T03:53:35.580Z,3.77
2022-10-26T03:56:02.277Z,3.40
2022-10-26T03:58:28.956Z,3.03
2022-10-26T04:00:55.718Z,3.40
2022-10-26T04:03:22.518Z,4.33
2022-10-26T04:05:49.474Z,3.50
2022-10-26T04:08:16.398Z,3.63
2022-10-26T04:10:45.397Z,3.77
2022-10-26T04:13:12.515Z,3.77
2022-10-26T04:15:39.324Z,3.90
2022-10-26T04:18:06.036Z,4.60
2022-10-26T04:20:35.084Z,4.73
2022-10-26T04:23:03.888Z,4.93
2022-10-26T04:25:33.062Z,4.87
2022-10-26T04:28:02.008Z,3.77
2022-10-26T04:30:28.766Z,4.10
2022-10-26T04:32:55.465Z,4.70
2022-10-26T04:35:22.325Z,3.50
2022-10-26T04:37:49.025Z,3.90
2022-10-26T04:40:16.849Z,4.43
2022-10-26T04:42:47.789Z,3.53
2022-10-26T04:45:16.293Z,4.07
2022-10-26T04:47:43.538Z,4.43
2022-10-26T04:50:12.188Z,3.40
2022-10-26T04:52:39.434Z,4.60
2022-10-26T04:55:07.996Z,4.23
2022-10-26T04:57:35.382Z,3.93
2022-10-26T05:00:04.363Z,4.50
2022-10-26T05:02:31.128Z,4.37
2022-10-26T05:04:58.042Z,4.10
2022-10-26T05:07:24.849Z,4.50
2022-10-26T05:09:51.609Z,4.97
2022-10-26T05:12:18.371Z,4.70
2022-10-26T05:14:45.184Z,5.20
2022-10-26T05:17:11.950Z,4.93
2022-10-26T05:19:38.814Z,5.77
2022-10-26T05:22:05.675Z,4.80
2022-10-26T05:24:32.398Z,4.20
2022-10-26T05:26:59.842Z,5.50
2022-10-26T05:29:26.599Z,4.70
2022-10-26T05:31:53.366Z,4.63
2022-10-26T05:34:20.159Z,4.10
2022-10-26T05:36:47.019Z,4.00
2022-10-26T05:39:13.880Z,5.17
2022-10-26T05:41:40.621Z,4.80
2022-10-26T05:44:07.335Z,4.23
2022-10-26T05:46:34.112Z,6.03
2022-10-26T05:49:00.901Z,5.90
2022-10-26T05:51:27.671Z,4.80
2022-10-26T05:53:54.771Z,3.40
2022-10-26T05:56:37.791Z,4.87
2022-10-26T05:59:10.388Z,5.77
2022-10-26T06:02:09.131Z,4.53
2022-10-26T06:04:41.437Z,4.70
2022-10-26T06:07:12.223Z,4.77
2022-10-26T06:09:40.318Z,4.17
2022-10-26T06:12:08.560Z,4.23
2022-10-26T06:14:36.824Z,4.53
2022-10-26T06:17:09.555Z,4.20
2022-10-26T06:20:00.996Z,3.13
2022-10-26T06:22:39.319Z,3.60
2022-10-26T06:25:17.815Z,3.50
2022-10-26T06:27:50.078Z,3.50
2022-10-26T06:30:17.047Z,3.43
2022-10-26T06:32:47.381Z,3.57
2022-10-26T06:35:37.457Z,3.90
2022-10-26T06:38:12.049Z,3.90
2022-10-26T06:40:42.508Z,3.47
2022-10-26T06:43:16.986Z,3.00
2022-10-26T06:45:47.659Z,3.50
2022-10-26T06:48:20.752Z,5.80
2022-10-26T06:50:52.975Z,3.20
2022-10-26T06:53:31.037Z,3.60
2022-10-26T06:55:59.560Z,3.40
2022-10-26T06:58:30.384Z,3.60
2022-10-26T07:00:57.594Z,3.63
2022-10-26T07:03:24.373Z,3.40
2022-10-26T07:05:51.275Z,3.93
2022-10-26T07:08:18.418Z,3.20
2022-10-26T07:10:46.817Z,3.30
2022-10-26T07:13:13.613Z,3.90
2022-10-26T07:15:41.386Z,3.40
2022-10-26T07:18:08.854Z,3.87
2022-10-26T07:20:40.570Z,3.20
2022-10-26T07:23:08.582Z,4.13
2022-10-26T07:25:38.881Z,3.70
2022-10-26T07:28:10.536Z,3.23
2022-10-26T07:30:39.216Z,4.10
2022-10-26T07:33:11.848Z,3.73
2022-10-26T07:35:39.054Z,3.70
2022-10-26T07:38:06.459Z,3.00
2022-10-26T07:40:33.661Z,3.33
2022-10-26T07:43:01.112Z,3.37
2022-10-26T07:45:28.928Z,2.90
2022-10-26T07:47:56.119Z,2.57
2022-10-26T07:50:23.994Z,2.33
2022-10-26T07:52:51.091Z,3.10
2022-10-26T07:55:18.169Z,2.67
2022-10-26T07:57:44.968Z,2.90
2022-10-26T08:00:12.869Z,2.57
2022-10-26T08:02:39.617Z,2.20
2022-10-26T08:05:06.827Z,2.70
2022-10-26T08:07:33.562Z,2.43
2022-10-26T08:10:00.915Z,2.40
2022-10-26T08:12:27.676Z,3.00
2022-10-26T08:14:54.448Z,3.83
2022-10-26T08:17:21.587Z,2.50
2022-10-26T08:19:49.137Z,3.13
2022-10-26T08:22:15.948Z,2.30
2022-10-26T08:24:44.194Z,3.70
2022-10-26T08:27:10.968Z,2.07
2022-10-26T08:29:37.734Z,3.10
2022-10-26T08:32:04.754Z,2.80
2022-10-26T08:34:31.554Z,3.40
2022-10-26T08:36:58.320Z,3.20
2022-10-26T08:39:27.405Z,2.90
2022-10-26T08:42:03.462Z,2.73
2022-10-26T08:44:42.196Z,2.20
2022-10-26T08:47:20.870Z,2.50
2022-10-26T08:49:58.198Z,2.50
2022-10-26T08:52:41.860Z,1.70
2022-10-26T08:55:16.001Z,2.20
2022-10-26T08:57:43.208Z,1.87
2022-10-26T09:00:18.812Z,2.33
2022-10-26T09:02:49.293Z,2.60
2022-10-26T09:05:21.713Z,2.80
2022-10-26T09:08:07.431Z,2.27
2022-10-26T09:10:55.829Z,2.43
2022-10-26T09:13:45.475Z,2.67
2022-10-26T09:16:25.479Z,2.03
2022-10-26T09:19:14.197Z,2.00
2022-10-26T09:21:54.937Z,2.80
2022-10-26T09:24:32.339Z,2.00
2022-10-26T09:27:21.299Z,1.93
2022-10-26T09:29:49.810Z,2.07
2022-10-26T09:32:23.684Z,3.03
2022-10-26T09:34:55.118Z,2.27
2022-10-26T09:37:29.861Z,1.87
2022-10-26T09:40:12.579Z,2.50
2022-10-26T09:42:39.256Z,2.77
2022-10-26T09:45:21.214Z,2.70
2022-10-26T09:47:53.823Z,1.63
2022-10-26T09:50:34.537Z,2.33
2022-10-26T09:53:01.373Z,2.37
2022-10-26T09:55:30.472Z,1.87
2022-10-26T09:58:02.074Z,2.60
2022-10-26T10:00:29.627Z,2.60
2022-10-26T10:02:58.330Z,2.60
2022-10-26T10:06:02.675Z,2.37
2022-10-26T10:08:20.112Z,2.80
2022-10-26T10:11:05.938Z,1.93
2022-10-26T10:13:38.321Z,2.27
2022-10-26T10:16:14.230Z,2.23
2022-10-26T10:18:42.280Z,2.67
2022-10-26T10:21:10.188Z,1.80
2022-10-26T10:23:47.805Z,2.80
2022-10-26T10:26:14.681Z,2.30
2022-10-26T10:28:42.716Z,1.93
2022-10-26T10:31:20.362Z,1.67
2022-10-26T10:33:49.301Z,2.30
2022-10-26T10:36:20.072Z,2.27
2022-10-26T10:38:48.994Z,2.03
2022-10-26T10:41:17.076Z,1.80
2022-10-26T10:43:49.952Z,1.80
2022-10-26T10:46:24.206Z,2.87
2022-10-26T10:49:32.406Z,2.03
2022-10-26T10:51:59.995Z,2.30
2022-10-26T10:54:38.951Z,1.63
2022-10-26T10:57:39.633Z,2.10
2022-10-26T11:00:09.850Z,2.37
2022-10-26T11:02:54.362Z,2.87
2022-10-26T11:05:42.668Z,2.90
2022-10-26T11:08:25.989Z,2.10
2022-10-26T11:11:00.975Z,2.10
2022-10-26T11:13:36.380Z,2.50
2022-10-26T11:16:07.406Z,1.63
2022-10-26T11:18:52.012Z,2.40
2022-10-26T11:21:30.006Z,2.10
2022-10-26T11:24:23.078Z,3.53
2022-10-26T11:26:55.596Z,1.83
2022-10-26T11:29:39.884Z,2.20
2022-10-26T11:32:30.347Z,2.20
2022-10-26T11:34:59.886Z,2.50
2022-10-26T11:37:49.824Z,2.63
2022-10-26T11:40:42.795Z,1.90
2022-10-26T11:43:31.006Z,2.83
2022-10-26T11:46:09.351Z,2.83
2022-10-26T11:48:44.648Z,2.57
2022-10-26T11:51:46.807Z,2.27
2022-10-26T11:56:55.883Z,1.93
2022-10-26T11:59:29.261Z,1.80
2022-10-26T12:02:05.918Z,1.67
2022-10-26T12:04:36.482Z,2.10
2022-10-26T12:07:10.451Z,1.77
2022-10-26T12:09:41.520Z,2.40
2022-10-26T12:12:17.686Z,2.00
2022-10-26T12:15:20.147Z,3.03
2022-10-26T12:17:52.295Z,1.80
2022-10-26T12:20:37.773Z,2.13
2022-10-26T12:23:06.369Z,2.20
2022-10-26T12:25:33.086Z,2.10
2022-10-26T12:28:00.448Z,2.30
2022-10-26T12:30:30.329Z,2.40
2022-10-26T12:33:02.065Z,2.03
2022-10-26T12:35:32.520Z,2.20
2022-10-26T12:38:00.519Z,2.10
2022-10-26T12:40:33.420Z,2.37
2022-10-26T12:43:36.386Z,1.80
2022-10-26T12:46:15.133Z,2.30
2022-10-26T12:48:44.377Z,1.80
2022-10-26T12:51:23.280Z,2.33
2022-10-26T12:54:30.849Z,2.63
2022-10-26T12:57:34.766Z,1.90
2022-10-26T13:00:06.548Z,2.00
2022-10-26T13:03:10.233Z,2.30
2022-10-26T13:05:58.392Z,2.57
2022-10-26T13:08:25.631Z,2.63
2022-10-26T13:11:26.205Z,2.10
2022-10-26T13:13:55.711Z,2.33
2022-10-26T13:16:26.293Z,2.43
2022-10-26T13:18:53.178Z,1.77
2022-10-26T13:21:21.513Z,4.70
2022-10-26T13:23:54.020Z,2.40
2022-10-26T13:26:24.441Z,3.20
2022-10-26T13:29:01.845Z,4.07
2022-10-26T13:31:31.604Z,3.03
2022-10-26T13:34:20.733Z,2.33
2022-10-26T13:36:59.443Z,2.00
2022-10-26T13:39:37.438Z,2.20
2022-10-26T13:42:07.203Z,2.87
2022-10-26T13:44:52.050Z,2.03
2022-10-26T13:47:52.969Z,2.40
2022-10-26T13:50:26.541Z,1.83
2022-10-26T13:52:59.806Z,2.30
2022-10-26T13:55:52.292Z,2.40
2022-10-26T13:58:43.300Z,2.60
2022-10-26T14:01:10.319Z,2.50
2022-10-26T14:03:37.560Z,3.03
2022-10-26T14:06:14.994Z,3.57
2022-10-26T14:08:43.576Z,2.50
2022-10-26T14:11:14.937Z,3.00
2022-10-26T14:13:42.902Z,2.20
2022-10-26T14:16:13.047Z,2.33
2022-10-26T14:18:43.030Z,1.97
2022-10-26T14:21:21.394Z,2.77
2022-10-26T14:23:56.931Z,2.93
2022-10-26T14:26:28.473Z,1.77
2022-10-26T14:29:01.301Z,6.10
2022-10-26T14:31:29.993Z,3.63
2022-10-26T14:33:58.427Z,4.10
2022-10-26T14:36:35.235Z,2.80
2022-10-26T14:39:06.384Z,3.57
2022-10-26T14:41:35.841Z,2.80
2022-10-26T14:44:02.973Z,6.80
2022-10-26T14:46:35.761Z,2.67
2022-10-26T14:49:03.547Z,3.37
2022-10-26T14:51:35.232Z,3.80
2022-10-26T14:54:03.583Z,2.50
2022-10-26T14:56:36.107Z,2.50
2022-10-26T14:59:13.064Z,2.47
2022-10-26T15:02:11.903Z,2.70
2022-10-26T15:04:41.001Z,3.07
2022-10-26T15:07:09.075Z,2.47
2022-10-26T15:09:49.355Z,4.00
2022-10-26T15:12:20.618Z,4.00
2022-10-26T15:14:47.884Z,3.33
2022-10-26T15:17:23.372Z,2.80
2022-10-26T15:19:51.997Z,3.60
2022-10-26T15:22:30.929Z,2.90
2022-10-26T15:25:03.335Z,3.90
2022-10-26T15:27:30.557Z,3.00
2022-10-26T15:30:15.195Z,2.60
2022-10-26T15:32:42.057Z,3.30
2022-10-26T15:35:11.721Z,2.67
2022-10-26T15:37:39.069Z,2.87
2022-10-26T15:40:06.840Z,3.30
2022-10-26T15:42:38.183Z,2.40
2022-10-26T15:45:22.534Z,3.17
2022-10-26T15:47:52.216Z,3.30
2022-10-26T15:50:25.379Z,3.27
2022-10-26T15:53:01.003Z,3.33
2022-10-26T15:55:31.004Z,3.13
2022-10-26T15:57:57.892Z,3.30
2022-10-26T16:00:24.634Z,3.40
2022-10-26T16:02:51.439Z,3.77
2022-10-26T16:05:18.354Z,3.60
2022-10-26T16:07:47.835Z,4.40
2022-10-26T16:10:22.127Z,3.83
2022-10-26T16:12:50.479Z,3.93
2022-10-26T16:15:24.768Z,4.50
2022-10-26T16:17:52.392Z,4.00
2022-10-26T16:20:27.310Z,5.53
2022-10-26T16:22:55.165Z,5.27
2022-10-26T16:25:24.518Z,5.87
2022-10-26T16:27:52.928Z,5.87
2022-10-26T16:30:20.554Z,4.80
2022-10-26T16:32:47.757Z,4.50
2022-10-26T16:35:15.144Z,4.63
2022-10-26T16:37:42.155Z,5.33
2022-10-26T16:40:10.023Z,4.90
2022-10-26T16:42:36.785Z,4.60
2022-10-26T16:45:04.064Z,4.70
2022-10-26T16:47:35.637Z,4.87
2022-10-26T16:50:03.451Z,5.60
2022-10-26T16:52:30.332Z,4.60
2022-10-26T16:54:57.087Z,4.97
2022-10-26T16:57:23.935Z,5.10
2022-10-26T16:59:50.670Z,5.97
2022-10-26T17:02:17.609Z,6.20
2022-10-26T17:04:44.435Z,6.37
2022-10-26T17:07:11.804Z,6.33
2022-10-26T17:09:38.637Z,6.30
2022-10-26T17:12:05.723Z,7.33
2022-10-26T17:14:32.738Z,7.50
2022-10-26T17:17:00.946Z,8.17
2022-10-26T17:19:27.705Z,6.27
2022-10-26T17:21:54.395Z,6.80
2022-10-26T17:24:21.516Z,7.70
2022-10-26T17:26:48.295Z,8.13
2022-10-26T17:29:15.397Z,7.93
2022-10-26T17:31:42.166Z,7.67
2022-10-26T17:34:08.965Z,6.37
2022-10-26T17:36:35.811Z,7.40
2022-10-26T17:39:02.676Z,6.80
2022-10-26T17:41:30.110Z,6.27
2022-10-26T17:43:57.030Z,6.30
2022-10-26T17:46:25.791Z,7.67
2022-10-26T17:48:57.442Z,6.60
2022-10-26T17:51:24.738Z,6.27
2022-10-26T17:53:51.883Z,7.20
2022-10-26T17:56:23.946Z,5.77
2022-10-26T17:58:59.499Z,5.93
2022-10-26T18:01:27.297Z,6.07
2022-10-26T18:03:54.450Z,5.30
2022-10-26T18:06:22.236Z,5.30
2022-10-26T18:08:49.060Z,5.97
2022-10-26T18:11:23.876Z,5.83
2022-10-26T18:13:53.965Z,6.37
2022-10-26T18:16:22.249Z,7.27
2022-10-26T18:18:50.347Z,6.80
2022-10-26T18:21:19.432Z,8.97
2022-10-26T18:23:47.069Z,9.20
2022-10-26T18:26:19.317Z,10.00
2022-10-26T18:28:46.562Z,11.10
2022-10-26T18:31:19.640Z,10.97
2022-10-26T18:33:46.764Z,8.47
2022-10-26T18:36:18.699Z,7.33
2022-10-26T18:38:48.601Z,7.80
2022-10-26T18:41:16.923Z,7.40
2022-10-26T18:43:45.500Z,7.10
2022-10-26T18:46:20.731Z,6.70
2022-10-26T18:48:48.437Z,6.77
2022-10-26T18:51:17.460Z,6.53
2022-10-26T18:53:45.389Z,8.60
2022-10-26T18:56:17.640Z,13.43
2022-10-26T18:58:47.009Z,10.40
2022-10-26T19:01:17.958Z,10.03
2022-10-26T19:03:46.078Z,9.03
2022-10-26T19:06:22.181Z,9.23
2022-10-26T19:08:49.059Z,10.17
2022-10-26T19:11:18.499Z,7.93
2022-10-26T19:13:45.848Z,8.90
2022-10-26T19:16:21.963Z,8.07
2022-10-26T19:19:00.805Z,11.80
2022-10-26T19:21:29.495Z,10.80
2022-10-26T19:23:58.656Z,9.10
2022-10-26T19:26:33.417Z,10.93
2022-10-26T19:29:07.065Z,9.53
2022-10-26T19:31:35.814Z,8.57
2022-10-26T19:34:03.610Z,7.60
2022-10-26T19:36:30.682Z,8.27
2022-10-26T19:38:57.681Z,9.80
2022-10-26T19:41:26.877Z,8.90
2022-10-26T19:46:27.403Z,8.70
2022-10-26T19:48:56.221Z,8.40
2022-10-26T19:51:24.249Z,8.70
2022-10-26T19:53:51.190Z,8.53
2022-10-26T19:56:20.499Z,7.80
2022-10-26T19:58:48.069Z,9.77
2022-10-26T20:01:15.790Z,8.53
2022-10-26T20:03:42.946Z,9.10
2022-10-26T20:06:13.600Z,11.53
2022-10-26T20:08:42.414Z,9.80
2022-10-26T20:11:14.660Z,10.67
2022-10-26T20:13:43.766Z,9.03
2022-10-26T20:16:10.915Z,9.20
2022-10-26T20:18:41.182Z,8.00
2022-10-26T20:21:14.108Z,8.80
2022-10-26T20:23:41.243Z,9.07
2022-10-26T20:26:08.864Z,8.90
2022-10-26T20:28:35.644Z,10.47
2022-10-26T20:31:02.855Z,9.43
2022-10-26T20:33:29.580Z,9.60
2022-10-26T20:36:00.165Z,9.43
2022-10-26T20:38:27.455Z,9.80
2022-10-26T20:40:59.022Z,12.13
2022-10-26T20:43:27.083Z,10.97
2022-10-26T20:45:56.056Z,10.17
2022-10-26T20:48:23.391Z,11.07
2022-10-26T20:50:59.686Z,10.33
2022-10-26T20:53:28.660Z,9.90
2022-10-26T20:56:00.044Z,9.50
2022-10-26T20:58:44.269Z,9.40
2022-10-26T21:01:27.723Z,10.07
2022-10-26T21:03:56.623Z,10.50
2022-10-26T21:06:23.995Z,8.27
2022-10-26T21:08:52.407Z,9.20
2022-10-26T21:11:20.617Z,8.57
2022-10-26T21:13:48.807Z,10.23
2022-10-26T21:16:17.170Z,8.67
2022-10-26T21:18:44.319Z,10.50
2022-10-26T21:21:11.645Z,12.00
2022-10-26T21:23:40.436Z,11.53
2022-10-26T21:26:08.302Z,12.20
2022-10-26T21:28:45.743Z,10.77
2022-10-26T21:31:17.375Z,9.20
2022-10-26T21:33:45.925Z,10.20
2022-10-26T21:36:13.490Z,9.20
2022-10-26T21:38:42.123Z,10.43
2022-10-26T21:41:11.429Z,8.80
2022-10-26T21:43:39.663Z,8.73
2022-10-26T21:46:07.116Z,8.40
2022-10-26T21:48:35.189Z,9.40
2022-10-26T21:51:04.120Z,8.30
2022-10-26T21:53:30.873Z,8.27
2022-10-26T21:56:05.315Z,8.63
2022-10-26T21:58:32.123Z,8.77
2022-10-26T22:01:06.086Z,9.10
2022-10-26T22:03:33.038Z,8.63
2022-10-26T22:05:59.985Z,8.27
2022-10-26T22:08:27.072Z,9.30
2022-10-26T22:10:53.896Z,8.57
2022-10-26T22:13:20.681Z,9.63
2022-10-26T22:15:47.607Z,8.70
2022-10-26T22:18:14.664Z,9.40
2022-10-26T22:20:41.440Z,8.07
2022-10-26T22:23:08.945Z,9.27
2022-10-26T22:25:35.847Z,7.67
2022-10-26T22:28:02.572Z,8.37
2022-10-26T22:30:29.276Z,9.53
2022-10-26T22:32:57.007Z,8.87
2022-10-26T22:35:29.447Z,9.23
2022-10-26T22:37:57.296Z,8.80
2022-10-26T22:40:24.104Z,8.03
2022-10-26T22:42:52.360Z,8.73
2022-10-26T22:45:19.420Z,9.07
2022-10-26T22:47:46.128Z,7.60
2022-10-26T22:50:12.876Z,8.50
2022-10-26T22:52:39.656Z,8.60
2022-10-26T22:55:06.887Z,6.83
2022-10-26T22:57:33.597Z,8.70
2022-10-26T23:00:00.346Z,7.70
2022-10-26T23:02:27.157Z,9.37
2022-10-26T23:04:53.857Z,7.50
2022-10-26T23:07:20.617Z,8.00
2022-10-26T23:09:47.455Z,7.07
2022-10-26T23:12:14.217Z,7.97
2022-10-26T23:14:40.913Z,9.00
2022-10-26T23:17:07.729Z,7.20
2022-10-26T23:19:34.470Z,9.97
2022-10-26T23:22:01.215Z,8.47
2022-10-26T23:24:27.934Z,9.67
2022-10-26T23:26:54.696Z,8.70
2022-10-26T23:29:21.429Z,8.17
2022-10-26T23:31:48.187Z,8.40
2022-10-26T23:34:14.999Z,9.00
2022-10-26T23:36:41.723Z,8.77
2022-10-26T23:39:08.423Z,7.23
2022-10-26T23:41:35.267Z,8.10
2022-10-26T23:44:01.990Z,9.10
2022-10-26T23:46:28.800Z,9.03
2022-10-26T23:48:55.505Z,8.73
2022-10-26T23:51:22.631Z,8.70
2022-10-26T23:53:49.348Z,9.47
2022-10-26T23:56:16.069Z,9.13
2022-10-26T23:58:42.770Z,8.27
